createdAt,value
2019-05-02T00:00:03.982Z,96.02
2019-05-02T00:01:03.960Z,95.87
2019-05-02T00:02:03.959Z,95.92
2019-05-02T00:03:04.553Z,95.92
2019-05-02T00:04:03.925Z,95.92
2019-05-02T00:05:03.936Z,96.02
2019-05-02T00:06:07.377Z,96.08
2019-05-02T00:07:04.888Z,95.25
2019-05-02T00:08:03.894Z,95.15
2019-05-02T00:09:11.413Z,95.00
2019-05-02T00:10:03.858Z,95.31
2019-05-02T00:11:03.862Z,95.21
2019-05-02T00:12:03.891Z,94.90
2019-05-02T00:13:03.822Z,94.80
2019-05-02T00:14:03.810Z,93.73
2019-05-02T00:15:03.830Z,93.83
2019-05-02T00:16:03.789Z,93.62
2019-05-02T00:17:03.791Z,93.62
2019-05-02T00:18:03.768Z,94.03
2019-05-02T00:19:14.076Z,93.79
2019-05-02T00:20:03.749Z,93.68
2019-05-02T00:21:03.733Z,92.96
2019-05-02T00:22:03.749Z,93.37
2019-05-02T00:23:03.711Z,92.55
2019-05-02T00:24:04.228Z,93.06
2019-05-02T00:25:03.696Z,92.76
2019-05-02T00:26:03.682Z,92.86
2019-05-02T00:27:03.663Z,92.65
2019-05-02T00:28:07.827Z,92.76
2019-05-02T00:29:04.644Z,92.76
2019-05-02T00:30:03.647Z,92.03
2019-05-02T00:31:07.410Z,92.20
2019-05-02T00:32:04.608Z,93.06
2019-05-02T00:33:03.608Z,92.86
2019-05-02T00:34:03.606Z,92.55
2019-05-02T00:35:03.574Z,92.55
2019-05-02T00:36:03.574Z,93.12
2019-05-02T00:37:03.551Z,92.71
2019-05-02T00:38:03.856Z,92.30
2019-05-02T00:39:03.548Z,91.93
2019-05-02T00:40:03.525Z,92.10
2019-05-02T00:41:03.778Z,91.93
2019-05-02T00:42:12.361Z,92.44
2019-05-02T00:43:04.485Z,92.65
2019-05-02T00:44:06.116Z,92.76
2019-05-02T00:45:04.476Z,92.86
2019-05-02T00:46:03.456Z,92.65
2019-05-02T00:47:06.071Z,92.34
2019-05-02T00:48:04.437Z,92.30
2019-05-02T00:49:03.463Z,91.42
2019-05-02T00:50:06.184Z,91.58
2019-05-02T00:51:04.399Z,91.06
2019-05-02T00:52:03.384Z,90.45
2019-05-02T00:53:07.126Z,90.96
2019-05-02T00:54:04.382Z,91.68
2019-05-02T00:55:03.352Z,90.45
2019-05-02T00:56:05.137Z,90.66
2019-05-02T00:57:04.326Z,90.66
2019-05-02T00:58:03.343Z,90.03
2019-05-02T00:59:07.600Z,90.03
2019-05-02T01:00:04.305Z,90.03
2019-05-02T01:01:03.285Z,89.94
2019-05-02T01:02:05.465Z,89.31
2019-05-02T01:03:03.262Z,89.73
2019-05-02T01:04:03.250Z,90.03
2019-05-02T01:05:04.440Z,89.97
2019-05-02T01:06:03.237Z,90.24
2019-05-02T01:07:03.217Z,89.83
2019-05-02T01:08:03.206Z,89.62
2019-05-02T01:09:05.881Z,89.94
2019-05-02T01:10:04.197Z,89.01
2019-05-02T01:11:03.170Z,88.49
2019-05-02T01:12:08.239Z,88.59
2019-05-02T01:13:04.147Z,88.59
2019-05-02T01:14:03.136Z,88.08
2019-05-02T01:15:08.054Z,87.98
2019-05-02T01:16:04.119Z,87.26
2019-05-02T01:17:03.108Z,87.36
2019-05-02T01:18:06.206Z,87.26
2019-05-02T01:19:03.083Z,87.36
2019-05-02T01:20:03.073Z,87.46
2019-05-02T01:21:04.130Z,87.36
2019-05-02T01:22:03.053Z,87.36
2019-05-02T01:23:03.041Z,87.36
2019-05-02T01:24:03.298Z,87.15
2019-05-02T01:25:03.037Z,87.67
2019-05-02T01:26:03.004Z,87.46
2019-05-02T01:27:04.546Z,87.36
2019-05-02T01:28:02.984Z,87.26
2019-05-02T01:29:02.973Z,87.46
2019-05-02T01:30:06.052Z,87.46
2019-05-02T01:31:02.955Z,87.46
2019-05-02T01:32:02.937Z,87.57
2019-05-02T01:33:06.360Z,87.46
2019-05-02T01:34:02.920Z,87.26
2019-05-02T01:35:02.907Z,87.67
2019-05-02T01:36:06.264Z,87.26
2019-05-02T01:37:03.893Z,87.46
2019-05-02T01:38:02.872Z,87.77
2019-05-02T01:39:07.465Z,87.77
2019-05-02T01:40:03.846Z,87.36
2019-05-02T01:41:02.837Z,87.15
2019-05-02T01:42:04.203Z,87.46
2019-05-02T01:43:02.833Z,87.26
2019-05-02T01:44:02.804Z,87.26
2019-05-02T01:45:06.806Z,87.67
2019-05-02T01:46:03.780Z,88.08
2019-05-02T01:47:02.769Z,87.05
2019-05-02T01:48:04.979Z,87.77
2019-05-02T01:49:02.774Z,86.95
2019-05-02T01:50:02.733Z,87.05
2019-05-02T01:51:04.676Z,86.74
2019-05-02T01:52:03.711Z,86.74
2019-05-02T01:53:02.699Z,87.77
2019-05-02T01:54:04.930Z,87.15
2019-05-02T01:55:03.693Z,86.74
2019-05-02T01:56:02.665Z,87.26
2019-05-02T01:57:03.902Z,87.46
2019-05-02T01:58:03.644Z,86.95
2019-05-02T01:59:02.640Z,87.15
2019-05-02T02:00:04.220Z,87.15
2019-05-02T02:01:03.631Z,86.64
2019-05-02T02:02:02.604Z,86.85
2019-05-02T02:03:04.165Z,87.36
2019-05-02T02:04:03.578Z,87.26
2019-05-02T02:05:02.566Z,87.26
2019-05-02T02:06:07.419Z,85.92
2019-05-02T02:07:03.558Z,86.02
2019-05-02T02:08:02.532Z,85.71
2019-05-02T02:09:03.354Z,85.82
2019-05-02T02:10:03.509Z,86.13
2019-05-02T02:11:02.498Z,86.85
2019-05-02T02:12:05.068Z,87.05
2019-05-02T02:13:05.207Z,86.74
2019-05-02T02:14:02.469Z,86.43
2019-05-02T02:15:02.452Z,85.92
2019-05-02T02:16:04.425Z,86.13
2019-05-02T02:17:02.435Z,86.02
2019-05-02T02:18:02.435Z,85.61
2019-05-02T02:19:04.090Z,85.61
2019-05-02T02:20:02.399Z,85.61
2019-05-02T02:21:02.413Z,84.07
2019-05-02T02:22:03.202Z,84.93
2019-05-02T02:23:02.369Z,84.99
2019-05-02T02:24:02.353Z,84.48
2019-05-02T02:25:02.901Z,84.38
2019-05-02T02:26:02.331Z,84.99
2019-05-02T02:27:02.331Z,84.58
2019-05-02T02:28:02.308Z,84.58
2019-05-02T02:29:03.017Z,84.17
2019-05-02T02:30:03.284Z,84.48
2019-05-02T02:31:05.155Z,84.48
2019-05-02T02:32:03.287Z,84.11
2019-05-02T02:33:07.543Z,84.48
2019-05-02T02:34:03.239Z,84.99
2019-05-02T02:35:03.408Z,84.99
2019-05-02T02:36:03.222Z,84.79
2019-05-02T02:37:05.394Z,85.61
2019-05-02T02:38:03.212Z,84.27
2019-05-02T02:39:07.142Z,83.97
2019-05-02T02:40:03.182Z,83.97
2019-05-02T02:41:06.353Z,84.62
2019-05-02T02:42:03.153Z,84.07
2019-05-02T02:43:12.649Z,84.52
2019-05-02T02:44:03.173Z,84.62
2019-05-02T02:45:02.115Z,85.10
2019-05-02T02:46:02.110Z,84.79
2019-05-02T02:47:02.154Z,84.27
2019-05-02T02:48:02.542Z,84.31
2019-05-02T02:49:02.088Z,84.58
2019-05-02T02:50:03.315Z,84.31
2019-05-02T02:51:02.048Z,83.80
2019-05-02T02:52:04.907Z,84.21
2019-05-02T02:53:02.030Z,83.59
2019-05-02T02:54:03.881Z,83.39
2019-05-02T02:55:02.027Z,83.70
2019-05-02T02:56:03.834Z,83.59
2019-05-02T02:57:01.981Z,83.80
2019-05-02T02:58:04.720Z,83.59
2019-05-02T02:59:01.964Z,82.87
2019-05-02T03:00:08.164Z,83.28
2019-05-02T03:01:02.946Z,83.59
2019-05-02T03:02:09.087Z,83.80
2019-05-02T03:03:02.914Z,83.59
2019-05-02T03:04:09.499Z,83.49
2019-05-02T03:05:02.930Z,83.49
2019-05-02T03:06:05.570Z,83.59
2019-05-02T03:07:02.877Z,83.73
2019-05-02T03:08:05.391Z,83.90
2019-05-02T03:09:02.847Z,84.21
2019-05-02T03:10:06.134Z,84.31
2019-05-02T03:11:02.836Z,83.70
2019-05-02T03:12:04.260Z,83.80
2019-05-02T03:13:01.816Z,82.87
2019-05-02T03:14:07.572Z,83.07
2019-05-02T03:15:02.782Z,82.77
2019-05-02T03:16:07.042Z,82.87
2019-05-02T03:17:02.780Z,82.19
2019-05-02T03:18:02.145Z,82.81
2019-05-02T03:19:01.733Z,82.25
2019-05-02T03:20:03.729Z,82.67
2019-05-02T03:21:01.712Z,82.81
2019-05-02T03:22:04.099Z,82.46
2019-05-02T03:23:01.715Z,83.42
2019-05-02T03:24:05.344Z,83.28
2019-05-02T03:25:01.676Z,83.18
2019-05-02T03:26:01.671Z,82.40
2019-05-02T03:27:01.666Z,82.70
2019-05-02T03:28:01.633Z,82.70
2019-05-02T03:29:01.644Z,82.29
2019-05-02T03:30:01.620Z,83.53
2019-05-02T03:31:22.060Z,82.70
2019-05-02T03:32:14.197Z,82.50
2019-05-02T03:33:09.668Z,82.81
2019-05-02T03:34:02.597Z,82.50
2019-05-02T03:35:01.564Z,82.70
2019-05-02T03:36:01.548Z,83.42
2019-05-02T03:37:10.062Z,83.42
2019-05-02T03:38:02.525Z,82.50
2019-05-02T03:39:13.946Z,82.56
2019-05-02T03:40:02.537Z,83.42
2019-05-02T03:41:01.485Z,83.01
2019-05-02T03:42:02.647Z,82.87
2019-05-02T03:43:01.468Z,83.07
2019-05-02T03:44:10.997Z,83.22
2019-05-02T03:45:04.955Z,82.81
2019-05-02T03:46:01.446Z,83.12
2019-05-02T03:47:04.477Z,82.77
2019-05-02T03:48:01.419Z,82.91
2019-05-02T03:49:07.606Z,83.53
2019-05-02T03:50:02.422Z,83.70
2019-05-02T03:51:04.900Z,83.63
2019-05-02T03:52:03.517Z,84.35
2019-05-02T03:53:01.359Z,83.90
2019-05-02T03:54:07.499Z,84.00
2019-05-02T03:55:02.330Z,83.70
2019-05-02T03:56:10.767Z,83.39
2019-05-02T03:57:02.309Z,83.90
2019-05-02T03:58:13.508Z,83.73
2019-05-02T03:59:02.286Z,84.93
2019-05-02T04:00:01.276Z,84.11
2019-05-02T04:01:03.656Z,84.11
2019-05-02T04:02:01.272Z,84.93
2019-05-02T04:03:02.547Z,83.90
2019-05-02T04:04:01.246Z,84.00
2019-05-02T04:05:02.913Z,84.62
2019-05-02T04:06:01.206Z,84.21
2019-05-02T04:07:01.585Z,84.72
2019-05-02T04:08:01.205Z,83.80
2019-05-02T04:09:02.017Z,84.00
2019-05-02T04:10:01.177Z,84.00
2019-05-02T04:11:01.866Z,84.62
2019-05-02T04:12:01.164Z,84.52
2019-05-02T04:13:01.150Z,84.21
2019-05-02T04:14:01.123Z,84.11
2019-05-02T04:15:01.116Z,84.31
2019-05-02T04:16:01.135Z,84.31
2019-05-02T04:17:01.082Z,84.93
2019-05-02T04:18:01.086Z,84.31
2019-05-02T04:19:01.060Z,84.21
2019-05-02T04:20:01.050Z,84.52
2019-05-02T04:21:01.053Z,84.00
2019-05-02T04:22:01.669Z,84.11
2019-05-02T04:23:02.037Z,83.80
2019-05-02T04:24:10.754Z,84.21
2019-05-02T04:25:06.086Z,84.00
2019-05-02T04:26:06.903Z,84.11
2019-05-02T04:27:01.970Z,85.14
2019-05-02T04:28:05.949Z,83.90
2019-05-02T04:29:01.962Z,84.11
2019-05-02T04:30:09.980Z,83.80
2019-05-02T04:31:01.939Z,84.62
2019-05-02T04:32:04.338Z,84.31
2019-05-02T04:33:01.910Z,84.72
2019-05-02T04:34:00.929Z,84.17
2019-05-02T04:35:00.882Z,84.62
2019-05-02T04:36:00.871Z,83.97
2019-05-02T04:37:03.893Z,84.07
2019-05-02T04:38:02.671Z,83.90
2019-05-02T04:39:05.999Z,84.27
2019-05-02T04:40:03.983Z,84.17
2019-05-02T04:41:00.854Z,84.89
2019-05-02T04:42:05.231Z,84.00
2019-05-02T04:43:07.335Z,84.07
2019-05-02T04:44:01.925Z,84.79
2019-05-02T04:45:20.518Z,83.76
2019-05-02T04:46:01.786Z,84.48
2019-05-02T04:47:13.855Z,84.48
2019-05-02T04:48:04.027Z,84.79
2019-05-02T04:49:00.726Z,84.58
2019-05-02T04:50:07.973Z,84.07
2019-05-02T04:51:10.377Z,84.07
2019-05-02T04:52:09.282Z,84.07
2019-05-02T04:53:01.682Z,84.27
2019-05-02T04:54:00.691Z,84.48
2019-05-02T04:55:13.066Z,84.69
2019-05-02T04:56:07.116Z,84.58
2019-05-02T04:57:02.473Z,84.44
2019-05-02T04:58:01.840Z,84.17
2019-05-02T04:59:01.943Z,84.44
2019-05-02T05:00:06.304Z,84.34
2019-05-02T05:01:02.082Z,84.03
2019-05-02T05:02:01.547Z,84.44
2019-05-02T05:03:00.569Z,84.13
2019-05-02T05:04:03.188Z,84.38
2019-05-02T05:05:00.567Z,84.64
2019-05-02T05:06:07.171Z,83.83
2019-05-02T05:07:01.579Z,83.92
2019-05-02T05:08:00.517Z,84.03
2019-05-02T05:09:04.203Z,84.48
2019-05-02T05:10:03.257Z,84.17
2019-05-02T05:11:00.477Z,84.27
2019-05-02T05:12:02.597Z,84.58
2019-05-02T05:13:00.452Z,84.44
2019-05-02T05:14:00.502Z,85.51
2019-05-02T05:15:00.601Z,84.54
2019-05-02T05:16:03.032Z,84.34
2019-05-02T05:17:01.427Z,85.16
2019-05-02T05:18:04.661Z,84.85
2019-05-02T05:19:01.407Z,84.03
2019-05-02T05:20:10.380Z,84.54
2019-05-02T05:21:01.361Z,84.03
2019-05-02T05:22:04.648Z,84.54
2019-05-02T05:23:01.361Z,85.68
2019-05-02T05:24:01.497Z,85.68
2019-05-02T05:25:00.321Z,85.26
2019-05-02T05:26:02.926Z,84.85
2019-05-02T05:27:00.312Z,85.20
2019-05-02T05:28:10.097Z,85.06
2019-05-02T05:29:00.301Z,85.36
2019-05-02T05:30:07.895Z,85.16
2019-05-02T05:31:01.256Z,84.95
2019-05-02T05:32:05.215Z,85.47
2019-05-02T05:33:01.256Z,85.57
2019-05-02T05:34:00.235Z,85.57
2019-05-02T05:35:03.185Z,85.06
2019-05-02T05:36:01.224Z,85.68
2019-05-02T05:37:03.525Z,86.08
2019-05-02T05:38:01.188Z,85.57
2019-05-02T05:39:03.081Z,85.78
2019-05-02T05:40:01.150Z,85.98
2019-05-02T05:41:03.126Z,85.71
2019-05-02T05:42:01.134Z,85.92
2019-05-02T05:43:02.132Z,86.02
2019-05-02T05:44:01.159Z,85.92
2019-05-02T05:45:03.749Z,86.02
2019-05-02T05:46:09.098Z,86.02
2019-05-02T05:47:01.072Z,86.23
2019-05-02T05:48:01.182Z,85.71
2019-05-02T05:49:00.056Z,85.92
2019-05-02T05:50:01.216Z,86.08
2019-05-02T05:51:00.028Z,86.29
2019-05-02T05:52:03.730Z,85.78
2019-05-02T05:53:00.005Z,85.57
2019-05-02T05:54:03.179Z,85.98
2019-05-02T05:54:59.987Z,85.26
2019-05-02T05:56:02.438Z,85.47
2019-05-02T05:56:59.964Z,85.57
2019-05-02T05:58:06.270Z,85.98
2019-05-02T05:59:00.939Z,85.36
2019-05-02T06:00:03.676Z,85.68
2019-05-02T06:01:00.963Z,85.88
2019-05-02T06:01:59.923Z,85.68
2019-05-02T06:03:10.315Z,86.08
2019-05-02T06:04:00.889Z,85.57
2019-05-02T06:05:03.600Z,86.08
2019-05-02T06:05:59.884Z,85.98
2019-05-02T06:07:03.160Z,85.88
2019-05-02T06:07:59.856Z,85.88
2019-05-02T06:08:59.822Z,85.68
2019-05-02T06:10:02.217Z,85.98
2019-05-02T06:11:00.814Z,85.68
2019-05-02T06:11:59.810Z,85.68
2019-05-02T06:12:59.815Z,85.68
2019-05-02T06:13:59.768Z,85.78
2019-05-02T06:15:01.807Z,85.74
2019-05-02T06:16:02.826Z,85.74
2019-05-02T06:16:59.737Z,85.84
2019-05-02T06:18:00.062Z,85.84
2019-05-02T06:18:59.717Z,85.94
2019-05-02T06:19:59.714Z,85.94
2019-05-02T06:21:03.314Z,85.84
2019-05-02T06:22:00.738Z,85.94
2019-05-02T06:23:01.204Z,86.25
2019-05-02T06:23:59.683Z,86.15
2019-05-02T06:24:59.645Z,86.05
2019-05-02T06:25:59.642Z,85.94
2019-05-02T06:26:59.645Z,85.74
2019-05-02T06:28:00.132Z,85.94
2019-05-02T06:29:00.676Z,85.74
2019-05-02T06:29:59.592Z,85.94
2019-05-02T06:31:02.247Z,86.05
2019-05-02T06:32:00.569Z,85.80
2019-05-02T06:32:59.578Z,86.15
2019-05-02T06:34:02.059Z,86.56
2019-05-02T06:35:00.528Z,86.46
2019-05-02T06:36:01.441Z,86.77
2019-05-02T06:36:59.613Z,85.90
2019-05-02T06:37:59.510Z,86.66
2019-05-02T06:38:59.519Z,85.90
2019-05-02T06:40:03.161Z,86.62
2019-05-02T06:41:00.463Z,85.70
2019-05-02T06:41:59.463Z,85.80
2019-05-02T06:42:59.450Z,86.62
2019-05-02T06:43:59.440Z,85.90
2019-05-02T06:45:01.004Z,85.60
2019-05-02T06:45:59.433Z,86.62
2019-05-02T06:47:04.233Z,86.62
2019-05-02T06:48:01.235Z,85.94
2019-05-02T06:48:59.375Z,87.24
2019-05-02T06:50:01.206Z,86.42
2019-05-02T06:50:59.383Z,86.62
2019-05-02T06:51:59.341Z,87.24
2019-05-02T06:52:59.354Z,86.11
2019-05-02T06:53:59.315Z,86.00
2019-05-02T06:54:59.308Z,86.52
2019-05-02T06:55:59.323Z,86.58
2019-05-02T06:56:59.279Z,86.62
2019-05-02T06:58:02.885Z,85.80
2019-05-02T06:59:00.293Z,86.32
2019-05-02T06:59:59.250Z,86.42
2019-05-02T07:00:59.262Z,86.32
2019-05-02T07:01:59.232Z,86.52
2019-05-02T07:02:59.223Z,87.24
2019-05-02T07:03:59.210Z,87.04
2019-05-02T07:04:59.208Z,86.42
2019-05-02T07:06:02.867Z,86.99
2019-05-02T07:06:59.877Z,86.00
2019-05-02T07:07:59.209Z,86.11
2019-05-02T07:08:59.835Z,86.38
2019-05-02T07:09:59.149Z,85.86
2019-05-02T07:11:01.537Z,86.07
2019-05-02T07:12:01.503Z,85.55
2019-05-02T07:13:10.138Z,86.21
2019-05-02T07:14:12.540Z,86.00
2019-05-02T07:15:01.537Z,86.48
2019-05-02T07:15:59.095Z,85.18
2019-05-02T07:16:59.064Z,85.66
2019-05-02T07:17:59.065Z,85.97
2019-05-02T07:18:59.049Z,86.38
2019-05-02T07:20:03.733Z,85.86
2019-05-02T07:21:00.027Z,85.35
2019-05-02T07:22:03.789Z,85.25
2019-05-02T07:22:59.991Z,85.25
2019-05-02T07:23:58.980Z,85.82
2019-05-02T07:25:01.928Z,84.59
2019-05-02T07:26:00.530Z,85.00
2019-05-02T07:27:01.999Z,84.80
2019-05-02T07:27:58.966Z,84.76
2019-05-02T07:28:58.938Z,84.59
2019-05-02T07:29:59.713Z,84.66
2019-05-02T07:30:58.903Z,85.06
2019-05-02T07:31:58.893Z,84.45
2019-05-02T07:33:01.171Z,83.94
2019-05-02T07:33:58.922Z,83.94
2019-05-02T07:34:58.864Z,84.45
2019-05-02T07:36:00.055Z,84.14
2019-05-02T07:36:58.837Z,83.53
2019-05-02T07:37:58.825Z,84.04
2019-05-02T07:39:05.127Z,84.25
2019-05-02T07:39:59.811Z,83.83
2019-05-02T07:40:58.797Z,83.94
2019-05-02T07:42:00.512Z,83.59
2019-05-02T07:42:59.774Z,84.00
2019-05-02T07:43:58.757Z,83.39
2019-05-02T07:44:58.778Z,83.94
2019-05-02T07:45:58.734Z,84.04
2019-05-02T07:47:02.740Z,84.45
2019-05-02T07:48:01.328Z,84.61
2019-05-02T07:48:58.706Z,83.76
2019-05-02T07:49:58.687Z,83.59
2019-05-02T07:50:58.689Z,83.07
2019-05-02T07:51:59.002Z,83.28
2019-05-02T07:52:58.711Z,83.18
2019-05-02T07:53:58.654Z,83.69
2019-05-02T07:55:01.133Z,83.39
2019-05-02T07:55:58.632Z,83.14
2019-05-02T07:56:58.622Z,82.53
2019-05-02T07:58:02.022Z,83.07
2019-05-02T07:58:59.592Z,83.18
2019-05-02T08:00:00.665Z,83.14
2019-05-02T08:00:58.605Z,83.14
2019-05-02T08:01:58.561Z,82.39
2019-05-02T08:02:59.430Z,83.00
2019-05-02T08:04:04.069Z,82.69
2019-05-02T08:04:59.517Z,81.87
2019-05-02T08:05:59.893Z,81.87
2019-05-02T08:06:58.523Z,81.73
2019-05-02T08:07:58.491Z,81.77
2019-05-02T08:09:01.707Z,82.86
2019-05-02T08:09:59.473Z,81.77
2019-05-02T08:11:01.715Z,81.52
2019-05-02T08:11:58.491Z,83.20
2019-05-02T08:12:58.425Z,82.14
2019-05-02T08:14:00.548Z,81.01
2019-05-02T08:15:00.347Z,81.84
2019-05-02T08:15:58.394Z,81.43
2019-05-02T08:17:05.407Z,81.22
2019-05-02T08:17:59.417Z,81.63
2019-05-02T08:19:01.353Z,81.59
2019-05-02T08:19:59.343Z,80.98
2019-05-02T08:20:58.345Z,80.77
2019-05-02T08:21:58.336Z,80.67
2019-05-02T08:22:58.336Z,80.77
2019-05-02T08:24:02.148Z,80.46
2019-05-02T08:24:59.312Z,80.57
2019-05-02T08:25:58.306Z,81.63
2019-05-02T08:26:59.579Z,81.32
2019-05-02T08:27:58.257Z,81.32
2019-05-02T08:28:58.248Z,81.63
2019-05-02T08:30:00.072Z,81.22
2019-05-02T08:30:59.239Z,81.52
2019-05-02T08:31:58.220Z,81.94
2019-05-02T08:32:58.220Z,82.08
2019-05-02T08:33:58.216Z,82.69
2019-05-02T08:34:58.175Z,82.79
2019-05-02T08:35:58.168Z,83.00
2019-05-02T08:36:58.954Z,82.24
2019-05-02T08:37:58.146Z,81.73
2019-05-02T08:38:58.131Z,81.84
2019-05-02T08:39:58.172Z,80.81
2019-05-02T08:40:58.143Z,81.01
2019-05-02T08:41:58.102Z,80.88
2019-05-02T08:42:58.094Z,81.18
2019-05-02T08:43:58.104Z,81.18
2019-05-02T08:45:00.916Z,80.36
2019-05-02T08:45:58.081Z,81.32
2019-05-02T08:46:58.048Z,81.63
2019-05-02T08:48:00.196Z,81.52
2019-05-02T08:48:59.035Z,82.14
2019-05-02T08:49:58.029Z,82.04
2019-05-02T08:50:58.053Z,81.73
2019-05-02T08:51:57.986Z,81.84
2019-05-02T08:52:57.978Z,81.49
2019-05-02T08:53:58.695Z,81.08
2019-05-02T08:54:57.962Z,81.49
2019-05-02T08:55:57.986Z,80.88
2019-05-02T08:56:58.952Z,81.59
2019-05-02T08:57:57.935Z,81.29
2019-05-02T08:58:57.910Z,81.29
2019-05-02T09:00:00.171Z,80.46
2019-05-02T09:00:57.923Z,81.12
2019-05-02T09:01:57.907Z,81.52
2019-05-02T09:03:02.523Z,81.63
2019-05-02T09:03:58.866Z,81.18
2019-05-02T09:04:58.981Z,81.08
2019-05-02T09:06:05.567Z,81.18
2019-05-02T09:07:00.683Z,80.67
2019-05-02T09:07:57.817Z,80.77
2019-05-02T09:08:57.813Z,81.38
2019-05-02T09:10:00.177Z,81.18
2019-05-02T09:10:58.782Z,80.26
2019-05-02T09:12:11.452Z,81.59
2019-05-02T09:12:58.788Z,81.90
2019-05-02T09:13:57.747Z,81.70
2019-05-02T09:14:57.730Z,81.49
2019-05-02T09:15:57.727Z,81.38
2019-05-02T09:17:00.201Z,81.59
2019-05-02T09:17:58.722Z,81.18
2019-05-02T09:18:57.728Z,81.38
2019-05-02T09:20:02.688Z,80.94
2019-05-02T09:20:58.665Z,80.46
2019-05-02T09:21:57.656Z,80.36
2019-05-02T09:22:57.644Z,81.08
2019-05-02T09:23:57.653Z,80.57
2019-05-02T09:24:57.651Z,81.49
2019-05-02T09:25:57.608Z,81.08
2019-05-02T09:26:57.595Z,81.70
2019-05-02T09:27:57.583Z,81.70
2019-05-02T09:29:01.654Z,81.49
2019-05-02T09:29:58.593Z,81.90
2019-05-02T09:31:02.262Z,81.18
2019-05-02T09:31:58.532Z,81.59
2019-05-02T09:33:04.827Z,81.90
2019-05-02T09:33:58.513Z,81.79
2019-05-02T09:35:04.270Z,81.29
2019-05-02T09:35:58.529Z,81.18
2019-05-02T09:36:57.480Z,81.18
2019-05-02T09:37:57.468Z,81.18
2019-05-02T09:38:57.783Z,81.24
2019-05-02T09:39:57.444Z,80.33
2019-05-02T09:40:57.448Z,80.74
2019-05-02T09:41:57.423Z,81.10
2019-05-02T09:43:01.617Z,80.26
2019-05-02T09:43:58.409Z,80.43
2019-05-02T09:44:57.390Z,81.59
2019-05-02T09:45:57.405Z,81.49
2019-05-02T09:46:57.393Z,81.29
2019-05-02T09:48:06.860Z,80.77
2019-05-02T09:49:04.304Z,81.24
2019-05-02T09:49:58.343Z,81.04
2019-05-02T09:50:58.145Z,80.83
2019-05-02T09:51:59.692Z,81.35
2019-05-02T09:52:57.311Z,81.24
2019-05-02T09:54:04.685Z,80.60
2019-05-02T09:54:58.283Z,80.39
2019-05-02T09:55:58.019Z,81.10
2019-05-02T09:56:57.287Z,80.43
2019-05-02T09:57:57.263Z,80.80
2019-05-02T09:59:06.172Z,80.90
2019-05-02T09:59:58.217Z,81.41
2019-05-02T10:00:57.209Z,80.19
2019-05-02T10:01:57.196Z,80.19
2019-05-02T10:02:57.205Z,80.49
2019-05-02T10:03:57.173Z,80.29
2019-05-02T10:04:57.197Z,80.22
2019-05-02T10:05:57.151Z,80.22
2019-05-02T10:06:57.151Z,80.29
2019-05-02T10:07:57.534Z,80.39
2019-05-02T10:08:57.165Z,80.90
2019-05-02T10:09:57.755Z,80.29
2019-05-02T10:10:58.088Z,80.19
2019-05-02T10:11:57.086Z,80.29
2019-05-02T10:12:57.068Z,81.41
2019-05-02T10:13:57.075Z,81.62
2019-05-02T10:14:57.048Z,81.04
2019-05-02T10:15:57.055Z,81.10
2019-05-02T10:16:57.614Z,81.51
2019-05-02T10:18:07.899Z,80.60
2019-05-02T10:19:00.323Z,81.51
2019-05-02T10:19:58.004Z,81.21
2019-05-02T10:20:57.041Z,80.29
2019-05-02T10:21:56.975Z,80.29
2019-05-02T10:22:56.956Z,81.01
2019-05-02T10:23:59.236Z,80.56
2019-05-02T10:24:56.950Z,81.31
2019-05-02T10:25:56.922Z,80.56
2019-05-02T10:27:04.071Z,79.74
2019-05-02T10:27:57.924Z,80.15
2019-05-02T10:28:56.911Z,80.46
2019-05-02T10:29:57.245Z,80.25
2019-05-02T10:30:56.983Z,79.84
2019-05-02T10:31:56.853Z,79.70
2019-05-02T10:32:57.419Z,79.70
2019-05-02T10:33:56.860Z,79.91
2019-05-02T10:34:56.995Z,80.25
2019-05-02T10:35:56.825Z,79.80
2019-05-02T10:36:58.851Z,79.80
2019-05-02T10:37:56.785Z,80.42
2019-05-02T10:38:59.248Z,79.64
2019-05-02T10:39:56.772Z,80.32
2019-05-02T10:41:01.633Z,79.91
2019-05-02T10:41:57.753Z,79.80
2019-05-02T10:42:56.735Z,78.85
2019-05-02T10:43:59.529Z,78.48
2019-05-02T10:44:56.743Z,78.64
2019-05-02T10:45:56.740Z,79.36
2019-05-02T10:46:56.698Z,79.02
2019-05-02T10:47:56.713Z,78.50
2019-05-02T10:48:56.662Z,78.30
2019-05-02T10:49:56.667Z,78.30
2019-05-02T10:50:56.659Z,77.25
2019-05-02T10:51:56.654Z,77.25
2019-05-02T10:52:56.624Z,77.34
2019-05-02T10:53:56.797Z,76.97
2019-05-02T10:54:56.648Z,77.75
2019-05-02T10:55:56.607Z,77.45
2019-05-02T10:56:56.583Z,75.71
2019-05-02T10:57:56.579Z,76.93
2019-05-02T10:58:56.565Z,76.80
2019-05-02T10:59:56.545Z,75.92
2019-05-02T11:00:56.569Z,75.78
2019-05-02T11:01:56.533Z,76.39
2019-05-02T11:02:56.505Z,76.09
2019-05-02T11:03:56.505Z,75.44
2019-05-02T11:04:56.510Z,74.62
2019-05-02T11:05:57.864Z,75.13
2019-05-02T11:06:57.482Z,75.30
2019-05-02T11:07:56.837Z,74.73
2019-05-02T11:08:57.440Z,74.49
2019-05-02T11:09:57.268Z,74.99
2019-05-02T11:10:57.429Z,74.58
2019-05-02T11:11:56.465Z,74.49
2019-05-02T11:12:56.546Z,74.28
2019-05-02T11:14:00.688Z,75.13
2019-05-02T11:14:57.398Z,74.73
2019-05-02T11:15:56.382Z,74.38
2019-05-02T11:16:56.878Z,75.47
2019-05-02T11:17:56.359Z,74.38
2019-05-02T11:18:56.331Z,74.83
2019-05-02T11:19:56.342Z,74.99
2019-05-02T11:20:58.946Z,74.93
2019-05-02T11:21:59.100Z,74.52
2019-05-02T11:22:56.298Z,74.32
2019-05-02T11:23:56.401Z,74.32
2019-05-02T11:24:56.288Z,75.13
2019-05-02T11:25:56.243Z,74.83
2019-05-02T11:26:56.232Z,75.54
2019-05-02T11:28:07.131Z,75.48
2019-05-02T11:28:56.210Z,74.86
2019-05-02T11:29:56.219Z,74.86
2019-05-02T11:30:57.000Z,76.09
2019-05-02T11:31:57.174Z,75.16
2019-05-02T11:32:56.162Z,75.48
2019-05-02T11:33:56.177Z,75.57
2019-05-02T11:34:56.154Z,75.44
2019-05-02T11:35:56.134Z,74.96
2019-05-02T11:36:56.158Z,75.78
2019-05-02T11:37:56.114Z,75.78
2019-05-02T11:39:05.637Z,75.85
2019-05-02T11:40:00.186Z,75.44
2019-05-02T11:40:56.088Z,75.03
2019-05-02T11:41:56.077Z,74.96
2019-05-02T11:42:57.261Z,74.83
2019-05-02T11:43:57.040Z,74.79
2019-05-02T11:44:56.032Z,74.49
2019-05-02T11:46:02.357Z,74.04
2019-05-02T11:46:57.007Z,73.10
2019-05-02T11:48:00.651Z,73.50
2019-05-02T11:48:58.611Z,71.64
2019-05-02T11:49:56.140Z,71.50
2019-05-02T11:50:58.089Z,71.40
2019-05-02T11:51:57.292Z,71.36
2019-05-02T11:52:55.938Z,70.79
2019-05-02T11:53:59.399Z,69.67
2019-05-02T11:54:56.928Z,69.43
2019-05-02T11:55:58.373Z,69.60
2019-05-02T11:56:56.924Z,67.75
2019-05-02T11:57:55.878Z,67.85
2019-05-02T11:58:55.887Z,68.29
2019-05-02T11:59:59.467Z,68.79
2019-05-02T12:00:56.860Z,68.49
2019-05-02T12:01:59.393Z,66.49
2019-05-02T12:02:58.052Z,69.91
2019-05-02T12:03:55.827Z,70.01
2019-05-02T12:04:55.803Z,70.08
2019-05-02T12:05:55.800Z,69.64
2019-05-02T12:07:00.950Z,69.81
2019-05-02T12:08:02.608Z,68.79
2019-05-02T12:08:56.813Z,68.29
2019-05-02T12:09:57.228Z,67.95
2019-05-02T12:10:55.734Z,67.44
2019-05-02T12:11:56.726Z,67.41
2019-05-02T12:12:55.713Z,67.00
2019-05-02T12:13:57.055Z,66.97
2019-05-02T12:14:55.686Z,67.51
2019-05-02T12:15:55.785Z,66.83
2019-05-02T12:16:55.671Z,67.78
2019-05-02T12:17:55.659Z,67.75
2019-05-02T12:19:08.454Z,67.72
2019-05-02T12:19:56.653Z,65.86
2019-05-02T12:20:55.646Z,66.06
2019-05-02T12:21:55.626Z,65.53
2019-05-02T12:22:55.620Z,64.61
2019-05-02T12:23:55.597Z,65.90
2019-05-02T12:24:55.615Z,64.65
2019-05-02T12:25:55.580Z,63.27
2019-05-02T12:26:55.557Z,64.48
2019-05-02T12:27:55.560Z,64.31
2019-05-02T12:28:55.554Z,64.61
2019-05-02T12:29:57.743Z,65.02
2019-05-02T12:30:55.509Z,65.80
2019-05-02T12:31:56.502Z,64.45
2019-05-02T12:32:55.573Z,63.61
2019-05-02T12:33:55.493Z,64.25
2019-05-02T12:34:55.489Z,64.55
2019-05-02T12:35:55.450Z,64.04
2019-05-02T12:36:55.444Z,65.59
2019-05-02T12:37:55.473Z,64.01
2019-05-02T12:38:55.447Z,65.53
2019-05-02T12:39:55.407Z,64.61
2019-05-02T12:40:57.864Z,64.88
2019-05-02T12:41:55.708Z,66.67
2019-05-02T12:42:55.496Z,67.45
2019-05-02T12:43:55.375Z,65.66
2019-05-02T12:44:55.353Z,66.33
2019-05-02T12:45:55.361Z,65.73
2019-05-02T12:46:55.333Z,64.48
2019-05-02T12:47:55.316Z,65.22
2019-05-02T12:48:55.307Z,64.28
2019-05-02T12:49:55.323Z,64.38
2019-05-02T12:50:55.317Z,64.02
2019-05-02T12:51:55.284Z,63.41